Time;durP1;ratioP1;P1;durP2;ratioP2;P2;SDS_P1;SDS_P2;PMS_P1;PMS_P2;Temp;Humidity;BMP_temperature;BMP_pressure;BME280_temperature;BME280_humidity;BME280_pressure;Samples;Min_cycle;Max_cycle;Signal;HPM_P1;HPM_P2
2022/01/06 00:00:22;;;;;;;;;;;5.00;99.90;;;;;;5052502;28;20226;-72
2022/01/06 00:02:47;;;;;;;;;;;4.90;99.90;;;;;;5072322;28;19908;-73
2022/01/06 00:05:13;;;;;;;;;;;5.00;99.90;;;;;;5072115;28;19912;-72
2022/01/06 00:07:39;;;;;;;;;;;5.00;99.90;;;;;;5072036;28;20003;-73
2022/01/06 00:10:06;;;;;;;;;;;5.00;99.90;;;;;;5054187;28;20276;-72
2022/01/06 00:12:43;;;;;;;;;;;5.00;99.90;;;;;;5072011;28;19916;-72
2022/01/06 00:15:26;;;;;;;;;;;5.00;99.90;;;;;;5072028;28;20517;-73
2022/01/06 00:25:52;;;;;;;;;;;5.00;99.90;;;;;;5072048;28;19966;-71
2022/01/06 00:28:18;;;;;;;;;;;5.00;99.90;;;;;;5053896;28;19908;-72
2022/01/06 00:30:44;;;;;;;;;;;5.00;99.90;;;;;;5071431;28;20007;-71
2022/01/06 00:33:09;;;;;;;;;;;4.90;99.90;;;;;;5053790;28;19963;-72
2022/01/06 00:35:35;;;;;;;;;;;4.90;99.90;;;;;;5051719;28;19912;-71
2022/01/06 00:38:01;;;;;;;;;;;5.00;99.90;;;;;;5051752;28;19931;-72
2022/01/06 00:40:27;;;;;;;;;;;5.00;99.90;;;;;;5054214;28;19962;-71
2022/01/06 00:42:52;;;;;;;;;;;5.00;99.90;;;;;;5051197;28;20394;-72
2022/01/06 00:45:18;;;;;;;;;;;5.00;99.90;;;;;;5033317;28;20356;-71
2022/01/06 00:47:44;;;;;;;;;;;4.90;99.90;;;;;;5052598;28;19912;-72
2022/01/06 00:50:11;;;;;;;;;;;4.90;99.90;;;;;;5053460;28;19927;-71
2022/01/06 00:52:36;;;;;;;;;;;4.90;99.90;;;;;;5071262;28;19913;-71
2022/01/06 00:55:02;;;;;;;;;;;4.90;99.90;;;;;;5071034;28;19931;-71
2022/01/06 00:57:28;;;;;;;;;;;4.90;99.90;;;;;;5070770;28;19914;-73
2022/01/06 00:59:53;;;;;;;;;;;4.90;99.90;;;;;;5071167;28;20058;-71
2022/01/06 01:02:19;;;;;;;;;;;4.90;99.90;;;;;;5070893;28;19912;-71
2022/01/06 01:04:45;;;;;;;;;;;4.90;99.90;;;;;;5070903;28;19916;-71
2022/01/06 01:07:10;;;;;;;;;;;5.00;99.90;;;;;;5052215;28;19974;-72
2022/01/06 01:09:36;;;;;;;;;;;4.90;99.90;;;;;;5070960;28;20275;-71
2022/01/06 01:12:03;;;;;;;;;;;5.00;99.90;;;;;;5070611;28;19905;-72
2022/01/06 01:14:32;;;;;;;;;;;4.90;99.90;;;;;;5070775;28;19926;-70
2022/01/06 01:17:02;;;;;;;;;;;4.90;99.90;;;;;;5070376;28;20245;-73
2022/01/06 01:19:29;;;;;;;;;;;5.00;99.90;;;;;;5052817;28;19908;-73
2022/01/06 01:21:55;;;;;;;;;;;5.00;99.90;;;;;;5052433;28;20352;-71
2022/01/06 01:24:21;;;;;;;;;;;5.00;99.90;;;;;;5070687;28;20345;-72
2022/01/06 01:26:46;;;;;;;;;;;4.90;99.90;;;;;;5052230;28;19944;-71
2022/01/06 01:29:17;;;;;;;;;;;4.90;99.90;;;;;;5070757;28;20019;-71
2022/01/06 01:31:50;;;;;;;;;;;5.00;99.90;;;;;;5070475;28;20305;-72
2022/01/06 01:34:22;;;;;;;;;;;5.00;99.90;;;;;;5070593;28;19912;-70
2022/01/06 01:36:48;;;;;;;;;;;5.00;99.90;;;;;;5070059;28;19904;-71
2022/01/06 01:39:14;;;;;;;;;;;5.00;99.90;;;;;;5052038;28;19916;-71
2022/01/06 01:41:39;;;;;;;;;;;5.00;99.90;;;;;;5059653;28;19916;-72
2022/01/06 01:44:12;;;;;;;;;;;5.00;99.90;;;;;;5051045;28;19920;-72
2022/01/06 01:46:43;;;;;;;;;;;5.00;99.90;;;;;;5060214;28;19908;-71
2022/01/06 01:51:50;;;;;;;;;;;5.10;99.90;;;;;;5069960;28;19915;-72
2022/01/06 01:54:15;;;;;;;;;;;5.20;99.90;;;;;;5070212;28;19955;-73
2022/01/06 01:56:41;;;;;;;;;;;5.10;99.90;;;;;;5069766;28;19944;-71
2022/01/06 01:59:06;;;;;;;;;;;5.10;99.90;;;;;;5070177;28;20352;-72
2022/01/06 02:01:32;;;;;;;;;;;5.00;99.90;;;;;;5069871;28;19905;-72
2022/01/06 02:03:58;;;;;;;;;;;5.10;99.90;;;;;;5070736;28;19924;-72
2022/01/06 02:06:24;;;;;;;;;;;5.10;99.90;;;;;;5069530;28;20272;-71
2022/01/06 02:08:51;;;;;;;;;;;5.10;99.90;;;;;;5051826;28;20360;-71
2022/01/06 02:11:17;;;;;;;;;;;5.10;99.90;;;;;;5069673;28;19954;-71
2022/01/06 02:13:50;;;;;;;;;;;5.20;99.90;;;;;;5070499;28;19913;-71
2022/01/06 02:16:18;;;;;;;;;;;5.20;99.90;;;;;;5069532;28;19908;-71
2022/01/06 02:18:44;;;;;;;;;;;5.20;99.90;;;;;;5052241;28;19997;-71
2022/01/06 02:21:09;;;;;;;;;;;5.10;99.90;;;;;;5070127;28;19962;-71
2022/01/06 02:23:35;;;;;;;;;;;5.10;99.90;;;;;;5070459;28;19924;-71
2022/01/06 02:26:00;;;;;;;;;;;5.10;99.90;;;;;;5051329;28;20029;-71
2022/01/06 02:28:26;;;;;;;;;;;5.20;99.90;;;;;;5069694;28;19912;-71
2022/01/06 02:30:54;;;;;;;;;;;5.30;99.90;;;;;;5069544;28;19908;-72
2022/01/06 02:33:20;;;;;;;;;;;5.30;99.90;;;;;;5051822;28;19912;-71
2022/01/06 02:35:47;;;;;;;;;;;5.30;99.90;;;;;;5069383;28;20265;-71
2022/01/06 02:38:12;;;;;;;;;;;5.30;99.90;;;;;;5070019;28;20270;-71
2022/01/06 02:40:38;;;;;;;;;;;5.20;99.90;;;;;;5067080;28;19908;-72
2022/01/06 02:43:06;;;;;;;;;;;5.10;99.90;;;;;;5031858;28;20364;-71
2022/01/06 02:45:32;;;;;;;;;;;5.10;99.90;;;;;;5050291;28;19950;-72
2022/01/06 02:47:58;;;;;;;;;;;5.20;99.90;;;;;;5069359;28;19913;-71
2022/01/06 02:50:24;;;;;;;;;;;5.20;99.90;;;;;;5051555;28;19905;-72
2022/01/06 02:52:50;;;;;;;;;;;5.20;99.90;;;;;;5069639;28;19952;-71
2022/01/06 02:55:16;;;;;;;;;;;5.20;99.90;;;;;;5051589;28;20410;-72
2022/01/06 02:57:42;;;;;;;;;;;5.20;99.90;;;;;;5069186;28;19921;-71
2022/01/06 03:00:10;;;;;;;;;;;5.20;99.90;;;;;;5051475;28;20021;-71
2022/01/06 03:02:35;;;;;;;;;;;5.20;99.90;;;;;;5069235;28;19923;-70
2022/01/06 03:05:01;;;;;;;;;;;5.20;99.90;;;;;;5071130;28;19908;-71
2022/01/06 03:07:27;;;;;;;;;;;5.20;99.90;;;;;;5072515;28;19912;-71
2022/01/06 03:09:55;;;;;;;;;;;5.20;99.90;;;;;;5054995;28;19977;-71
2022/01/06 03:12:39;;;;;;;;;;;5.20;99.90;;;;;;5072616;28;20298;-71
2022/01/06 03:15:14;;;;;;;;;;;5.20;99.90;;;;;;5054957;28;19905;-72
2022/01/06 03:17:41;;;;;;;;;;;5.20;99.90;;;;;;5072718;28;20027;-72
2022/01/06 03:20:08;;;;;;;;;;;5.20;99.90;;;;;;5073412;28;20275;-71
2022/01/06 03:22:34;;;;;;;;;;;5.30;99.90;;;;;;5054836;28;20257;-72
2022/01/06 03:25:00;;;;;;;;;;;5.20;99.90;;;;;;5073506;28;20001;-72
2022/01/06 03:27:25;;;;;;;;;;;5.20;99.90;;;;;;5072495;28;19916;-70
2022/01/06 03:29:51;;;;;;;;;;;5.20;99.90;;;;;;5054712;28;20387;-72
2022/01/06 03:32:17;;;;;;;;;;;5.20;99.90;;;;;;5072580;28;19935;-71
2022/01/06 03:34:43;;;;;;;;;;;5.20;99.90;;;;;;5072995;28;19908;-69
2022/01/06 03:37:09;;;;;;;;;;;5.20;99.90;;;;;;5072452;28;22280;-71
2022/01/06 03:39:35;;;;;;;;;;;5.20;99.90;;;;;;5054654;28;20086;-71
2022/01/06 03:42:00;;;;;;;;;;;5.20;99.90;;;;;;5072360;28;19986;-72
2022/01/06 03:44:26;;;;;;;;;;;5.20;99.90;;;;;;5072740;28;19916;-72
2022/01/06 03:46:53;;;;;;;;;;;5.20;99.90;;;;;;5072349;28;20418;-71
2022/01/06 03:49:19;;;;;;;;;;;5.20;99.90;;;;;;5072677;28;19908;-72
2022/01/06 03:51:45;;;;;;;;;;;5.20;99.90;;;;;;5072513;28;19905;-72
2022/01/06 03:54:10;;;;;;;;;;;5.20;99.90;;;;;;5072704;28;20467;-71
2022/01/06 03:56:36;;;;;;;;;;;5.20;99.90;;;;;;5054102;28;20268;-72
2022/01/06 03:59:01;;;;;;;;;;;5.30;99.90;;;;;;5072432;28;19918;-72
2022/01/06 04:01:27;;;;;;;;;;;5.30;99.90;;;;;;5054142;28;19912;-72
2022/01/06 04:03:52;;;;;;;;;;;5.30;99.90;;;;;;5072804;28;19912;-71
2022/01/06 04:06:18;;;;;;;;;;;5.30;99.90;;;;;;5072040;28;19908;-72
2022/01/06 04:08:45;;;;;;;;;;;5.30;99.90;;;;;;5054202;28;20225;-72
2022/01/06 04:11:10;;;;;;;;;;;5.30;99.90;;;;;;5072055;28;20394;-73
2022/01/06 04:13:36;;;;;;;;;;;5.30;99.90;;;;;;5072277;28;19986;-72
2022/01/06 04:16:05;;;;;;;;;;;5.30;99.90;;;;;;5054141;28;20257;-72
2022/01/06 04:18:31;;;;;;;;;;;5.40;99.90;;;;;;5072276;28;20264;-72
2022/01/06 04:20:57;;;;;;;;;;;5.40;99.90;;;;;;5071730;28;19912;-71
2022/01/06 04:23:22;;;;;;;;;;;5.30;99.90;;;;;;5071795;28;19909;-72
2022/01/06 04:25:48;;;;;;;;;;;5.30;99.90;;;;;;5071900;28;19908;-70
2022/01/06 04:28:13;;;;;;;;;;;5.30;99.90;;;;;;5071954;28;19999;-72
2022/01/06 04:30:39;;;;;;;;;;;5.20;99.90;;;;;;5053650;28;20279;-72
2022/01/06 04:33:04;;;;;;;;;;;5.20;99.90;;;;;;5072059;28;19919;-72
2022/01/06 04:35:30;;;;;;;;;;;5.20;99.90;;;;;;5072039;28;20064;-72
2022/01/06 04:37:56;;;;;;;;;;;5.20;99.90;;;;;;5052950;28;19916;-72
2022/01/06 04:40:21;;;;;;;;;;;5.30;99.90;;;;;;5071553;28;20007;-73
2022/01/06 04:42:47;;;;;;;;;;;5.20;99.90;;;;;;5053096;28;19998;-72
2022/01/06 04:45:12;;;;;;;;;;;5.30;99.90;;;;;;5071698;28;19904;-71
2022/01/06 04:47:38;;;;;;;;;;;5.30;99.90;;;;;;5071183;28;19919;-72
2022/01/06 04:50:04;;;;;;;;;;;5.30;99.90;;;;;;5071533;28;19904;-72
2022/01/06 04:52:29;;;;;;;;;;;5.40;99.90;;;;;;5071152;28;19912;-71
2022/01/06 04:54:55;;;;;;;;;;;5.40;99.90;;;;;;5053734;28;19908;-72
2022/01/06 04:57:21;;;;;;;;;;;5.30;99.90;;;;;;5071153;28;19912;-71
2022/01/06 04:59:46;;;;;;;;;;;5.30;99.90;;;;;;5070996;28;19962;-72
2022/01/06 05:02:12;;;;;;;;;;;5.30;99.90;;;;;;5055997;28;19912;-71
2022/01/06 05:04:37;;;;;;;;;;;5.30;99.90;;;;;;5033381;28;19988;-72
2022/01/06 05:07:03;;;;;;;;;;;5.30;99.90;;;;;;5064769;28;19912;-72
2022/01/06 05:09:28;;;;;;;;;;;5.30;99.90;;;;;;5052779;28;20370;-72
2022/01/06 05:11:54;;;;;;;;;;;5.30;99.90;;;;;;5070662;28;19912;-72
2022/01/06 05:14:20;;;;;;;;;;;5.30;99.90;;;;;;5071111;28;19912;-72
2022/01/06 05:16:45;;;;;;;;;;;5.20;99.90;;;;;;5070960;28;19955;-72
2022/01/06 05:19:11;;;;;;;;;;;5.20;99.90;;;;;;5070972;28;19916;-71
2022/01/06 05:21:36;;;;;;;;;;;5.20;99.90;;;;;;5052549;28;19909;-71
2022/01/06 05:24:09;;;;;;;;;;;5.20;99.90;;;;;;5053173;28;19913;-71
2022/01/06 05:26:35;;;;;;;;;;;5.20;99.90;;;;;;5070522;28;19904;-71
2022/01/06 05:29:01;;;;;;;;;;;5.20;99.90;;;;;;5070634;28;20222;-71
2022/01/06 05:31:26;;;;;;;;;;;5.20;99.90;;;;;;5070172;28;19904;-71
2022/01/06 05:33:52;;;;;;;;;;;5.30;99.90;;;;;;5071340;28;19938;-72
2022/01/06 05:36:17;;;;;;;;;;;5.20;99.90;;;;;;5070231;28;19908;-72
2022/01/06 05:38:43;;;;;;;;;;;5.30;99.90;;;;;;5052135;28;20006;-71
2022/01/06 05:41:08;;;;;;;;;;;5.30;99.90;;;;;;5063680;28;20037;-71
2022/01/06 05:43:34;;;;;;;;;;;5.30;99.90;;;;;;5051007;28;19996;-72
2022/01/06 05:46:00;;;;;;;;;;;5.30;99.90;;;;;;5055077;28;19905;-72
2022/01/06 05:48:26;;;;;;;;;;;5.20;99.90;;;;;;5070793;28;19920;-71
2022/01/06 05:50:51;;;;;;;;;;;5.20;99.90;;;;;;5065565;28;19913;-72
2022/01/06 05:53:18;;;;;;;;;;;5.10;99.90;;;;;;5032511;28;19967;-71
2022/01/06 05:55:43;;;;;;;;;;;5.10;99.90;;;;;;5052693;28;19912;-72
2022/01/06 05:58:09;;;;;;;;;;;5.20;99.90;;;;;;5052245;28;19916;-73
2022/01/06 06:00:35;;;;;;;;;;;5.20;99.90;;;;;;5051566;28;19908;-72
2022/01/06 06:03:00;;;;;;;;;;;5.20;99.90;;;;;;5070468;28;20360;-70
2022/01/06 06:05:26;;;;;;;;;;;5.20;99.90;;;;;;5069912;28;20432;-73
2022/01/06 06:07:51;;;;;;;;;;;5.20;99.90;;;;;;5052008;28;19916;-73
2022/01/06 06:10:17;;;;;;;;;;;5.20;99.90;;;;;;5069628;28;19999;-73
2022/01/06 06:12:43;;;;;;;;;;;5.30;99.90;;;;;;5070134;28;19912;-72
2022/01/06 06:15:08;;;;;;;;;;;5.30;99.90;;;;;;5069865;28;19911;-72
2022/01/06 06:17:34;;;;;;;;;;;5.30;99.90;;;;;;5069964;28;19934;-74
2022/01/06 06:20:00;;;;;;;;;;;5.30;99.90;;;;;;5069913;28;20311;-72
2022/01/06 06:22:25;;;;;;;;;;;5.40;99.90;;;;;;5069613;28;19939;-72
2022/01/06 06:24:51;;;;;;;;;;;5.40;99.90;;;;;;5069933;28;19911;-73
2022/01/06 06:27:17;;;;;;;;;;;5.40;99.90;;;;;;5069423;28;19923;-72
2022/01/06 06:29:42;;;;;;;;;;;5.30;99.90;;;;;;5069763;28;20001;-73
2022/01/06 06:32:08;;;;;;;;;;;5.30;99.90;;;;;;5051617;28;20344;-71
2022/01/06 06:34:33;;;;;;;;;;;5.30;99.90;;;;;;5070097;28;19908;-71
2022/01/06 06:36:59;;;;;;;;;;;5.30;99.90;;;;;;5069670;28;19908;-71
2022/01/06 06:39:24;;;;;;;;;;;5.30;99.90;;;;;;5070879;28;19916;-72
2022/01/06 06:41:50;;;;;;;;;;;5.30;99.90;;;;;;5073414;28;19920;-71
2022/01/06 06:44:16;;;;;;;;;;;5.30;99.90;;;;;;5074509;28;20276;-72
2022/01/06 06:46:41;;;;;;;;;;;5.30;99.90;;;;;;5073205;28;19908;-72
2022/01/06 06:49:07;;;;;;;;;;;5.20;99.90;;;;;;5055805;28;20347;-72
2022/01/06 06:51:33;;;;;;;;;;;5.20;99.90;;;;;;5073207;28;19908;-72
2022/01/06 06:53:58;;;;;;;;;;;5.30;99.90;;;;;;5074536;28;20014;-73
2022/01/06 06:56:24;;;;;;;;;;;5.30;99.90;;;;;;5073487;28;19930;-73
2022/01/06 06:58:50;;;;;;;;;;;5.20;99.90;;;;;;5073576;28;19912;-74
2022/01/06 07:01:16;;;;;;;;;;;5.20;99.90;;;;;;5073187;28;20288;-73
2022/01/06 07:03:41;;;;;;;;;;;5.20;99.90;;;;;;5074129;28;19962;-71
2022/01/06 07:06:07;;;;;;;;;;;5.20;99.90;;;;;;5054694;28;20085;-71
2022/01/06 07:08:32;;;;;;;;;;;5.20;99.90;;;;;;5055611;28;19925;-73
2022/01/06 07:10:58;;;;;;;;;;;5.20;99.90;;;;;;5072953;28;19909;-73
2022/01/06 07:13:23;;;;;;;;;;;5.20;99.90;;;;;;5055386;28;20005;-72
2022/01/06 07:15:49;;;;;;;;;;;5.20;99.90;;;;;;5073168;28;19919;-73
2022/01/06 07:18:15;;;;;;;;;;;5.30;99.90;;;;;;5055460;28;20283;-71
2022/01/06 07:20:41;;;;;;;;;;;5.20;99.90;;;;;;5055084;28;19912;-72
2022/01/06 07:23:07;;;;;;;;;;;5.20;99.90;;;;;;5073579;28;19912;-73
2022/01/06 07:25:32;;;;;;;;;;;5.10;99.90;;;;;;5072750;28;19961;-73
2022/01/06 07:27:58;;;;;;;;;;;5.10;99.90;;;;;;5073210;28;19908;-72
2022/01/06 07:30:24;;;;;;;;;;;5.10;99.90;;;;;;5055137;28;19913;-73
2022/01/06 07:32:50;;;;;;;;;;;5.10;99.90;;;;;;5055071;28;20311;-73
2022/01/06 07:35:17;;;;;;;;;;;5.10;99.90;;;;;;5073077;28;20415;-74
2022/01/06 07:37:43;;;;;;;;;;;5.10;99.90;;;;;;5054827;28;19957;-72
2022/01/06 07:40:09;;;;;;;;;;;5.10;99.90;;;;;;5072848;28;20360;-71
2022/01/06 07:42:35;;;;;;;;;;;4.90;99.90;;;;;;5070888;28;19978;-73
2022/01/06 07:45:00;;;;;;;;;;;4.80;99.90;;;;;;5054183;28;19980;-73
2022/01/06 07:47:28;;;;;;;;;;;4.70;99.90;;;;;;5072421;28;19963;-72
2022/01/06 07:49:53;;;;;;;;;;;4.70;99.90;;;;;;5054371;28;19908;-73
2022/01/06 07:52:19;;;;;;;;;;;4.60;99.90;;;;;;5071861;28;20142;-73
2022/01/06 07:54:44;;;;;;;;;;;4.50;99.90;;;;;;5054958;28;19912;-71
2022/01/06 07:57:10;;;;;;;;;;;4.50;99.90;;;;;;5072328;28;19962;-72
2022/01/06 07:59:35;;;;;;;;;;;4.50;99.90;;;;;;5072732;28;19919;-72
2022/01/06 08:02:01;;;;;;;;;;;4.40;99.90;;;;;;5071812;28;19927;-72
2022/01/06 08:04:27;;;;;;;;;;;4.40;99.90;;;;;;5072179;28;19905;-73
2022/01/06 08:06:52;;;;;;;;;;;4.40;99.90;;;;;;5072005;28;19905;-72
2022/01/06 08:09:18;;;;;;;;;;;4.30;99.90;;;;;;5072324;28;19957;-72
2022/01/06 08:11:43;;;;;;;;;;;4.30;99.90;;;;;;5053914;28;19911;-72
2022/01/06 08:14:09;;;;;;;;;;;4.20;99.90;;;;;;5072621;28;19916;-72
2022/01/06 08:16:34;;;;;;;;;;;4.10;99.90;;;;;;5071813;28;19955;-72
2022/01/06 08:19:00;;;;;;;;;;;4.10;99.90;;;;;;5054393;28;19924;-73
2022/01/06 08:21:25;;;;;;;;;;;4.10;99.90;;;;;;5053469;28;19908;-72
2022/01/06 08:23:51;;;;;;;;;;;4.20;99.90;;;;;;5072211;28;19965;-72
2022/01/06 08:26:17;;;;;;;;;;;4.20;99.90;;;;;;5072289;28;19904;-73
2022/01/06 08:28:45;;;;;;;;;;;4.20;99.90;;;;;;5072446;28;19916;-72
2022/01/06 08:31:13;;;;;;;;;;;4.20;99.90;;;;;;5053439;28;19908;-72
2022/01/06 08:33:38;;;;;;;;;;;4.20;99.90;;;;;;5072070;28;19958;-72
2022/01/06 08:36:04;;;;;;;;;;;4.20;99.90;;;;;;5071154;28;19908;-72
2022/01/06 08:38:30;;;;;;;;;;;4.20;99.90;;;;;;5071897;28;19912;-71
2022/01/06 08:40:55;;;;;;;;;;;4.20;99.90;;;;;;5066437;28;19912;-72
2022/01/06 08:43:27;;;;;;;;;;;4.20;99.90;;;;;;5051643;28;20016;-73
2022/01/06 08:45:56;;;;;;;;;;;4.20;99.90;;;;;;5055096;28;19991;-72
2022/01/06 08:48:22;;;;;;;;;;;4.20;99.90;;;;;;5071712;28;19912;-72
2022/01/06 08:50:48;;;;;;;;;;;4.30;99.90;;;;;;5067735;28;19966;-72
2022/01/06 08:53:13;;;;;;;;;;;4.30;99.90;;;;;;5051260;28;19924;-72
2022/01/06 08:55:39;;;;;;;;;;;4.30;99.90;;;;;;5053243;28;19999;-72
2022/01/06 08:58:05;;;;;;;;;;;4.40;99.90;;;;;;5071508;28;19912;-72
2022/01/06 09:00:31;;;;;;;;;;;4.40;99.90;;;;;;5071130;28;19908;-73
2022/01/06 09:02:57;;;;;;;;;;;4.50;99.90;;;;;;5070331;28;19928;-73
2022/01/06 09:05:22;;;;;;;;;;;4.60;99.90;;;;;;5052593;28;20090;-72
2022/01/06 09:07:48;;;;;;;;;;;4.60;99.90;;;;;;5071334;28;19923;-73
2022/01/06 09:10:14;;;;;;;;;;;4.70;99.90;;;;;;5053429;28;19946;-72
2022/01/06 09:12:40;;;;;;;;;;;4.70;99.90;;;;;;5051610;28;20020;-73
2022/01/06 09:15:06;;;;;;;;;;;4.70;99.90;;;;;;5051343;28;19991;-72
2022/01/06 09:17:35;;;;;;;;;;;4.60;99.90;;;;;;5050213;28;19912;-73
2022/01/06 09:20:01;;;;;;;;;;;4.40;99.90;;;;;;5070451;28;19908;-73
2022/01/06 09:22:27;;;;;;;;;;;4.40;99.90;;;;;;5070492;28;19928;-73
2022/01/06 09:24:52;;;;;;;;;;;4.30;99.90;;;;;;5070181;28;19904;-73
2022/01/06 09:27:18;;;;;;;;;;;4.40;99.90;;;;;;5070196;28;19920;-72
2022/01/06 09:29:43;;;;;;;;;;;4.50;99.90;;;;;;5070378;28;19904;-73
2022/01/06 09:32:09;;;;;;;;;;;4.60;99.90;;;;;;5070060;28;19920;-72
2022/01/06 09:34:35;;;;;;;;;;;4.60;99.90;;;;;;5070528;28;19915;-73
2022/01/06 09:37:00;;;;;;;;;;;4.50;99.90;;;;;;5056764;28;19904;-73
2022/01/06 09:39:26;;;;;;;;;;;4.40;99.90;;;;;;5067768;28;19919;-73
2022/01/06 09:41:51;;;;;;;;;;;4.40;99.90;;;;;;5057631;28;20334;-73
2022/01/06 09:44:18;;;;;;;;;;;4.40;99.90;;;;;;5049902;28;20315;-72
2022/01/06 09:46:43;;;;;;;;;;;4.40;99.90;;;;;;5061376;28;19950;-73
2022/01/06 09:49:09;;;;;;;;;;;4.40;99.90;;;;;;5070102;28;19912;-73
2022/01/06 09:51:34;;;;;;;;;;;4.30;99.90;;;;;;5070258;28;20273;-73
2022/01/06 09:54:01;;;;;;;;;;;4.30;99.90;;;;;;5070057;28;20355;-73
2022/01/06 09:56:27;;;;;;;;;;;4.30;99.90;;;;;;5051770;28;19919;-72
2022/01/06 09:58:53;;;;;;;;;;;4.30;99.90;;;;;;5051849;28;19908;-72
2022/01/06 10:01:20;;;;;;;;;;;4.20;99.90;;;;;;5069848;28;20354;-72
2022/01/06 10:03:48;;;;;;;;;;;4.20;99.90;;;;;;5051975;28;19908;-72
2022/01/06 10:06:16;;;;;;;;;;;4.20;99.90;;;;;;5051523;28;19908;-73
2022/01/06 10:08:47;;;;;;;;;;;4.30;99.90;;;;;;5052028;28;20003;-73
2022/01/06 10:11:14;;;;;;;;;;;4.30;99.90;;;;;;5069561;28;19912;-72
2022/01/06 10:13:41;;;;;;;;;;;4.50;99.90;;;;;;5069671;28;19916;-73
2022/01/06 10:16:17;;;;;;;;;;;4.60;99.90;;;;;;5069702;28;20012;-72
2022/01/06 10:19:02;;;;;;;;;;;4.60;99.90;;;;;;5069760;28;20168;-72
2022/01/06 10:21:34;;;;;;;;;;;4.60;99.90;;;;;;5069681;28;19912;-72
2022/01/06 10:23:59;;;;;;;;;;;4.60;99.90;;;;;;5070142;28;19947;-72
2022/01/06 10:26:25;;;;;;;;;;;4.60;99.90;;;;;;5069608;28;19955;-73
2022/01/06 10:28:51;;;;;;;;;;;4.60;99.90;;;;;;5070325;28;20382;-72
2022/01/06 10:31:18;;;;;;;;;;;4.60;99.90;;;;;;5051166;28;19912;-73
2022/01/06 10:33:43;;;;;;;;;;;4.60;99.90;;;;;;5069977;28;19915;-73
2022/01/06 10:36:09;;;;;;;;;;;4.70;99.90;;;;;;5069244;28;19908;-74
2022/01/06 10:38:35;;;;;;;;;;;4.70;99.90;;;;;;5052143;28;19962;-72
2022/01/06 10:41:08;;;;;;;;;;;4.80;99.90;;;;;;5051150;28;19923;-75
2022/01/06 10:43:34;;;;;;;;;;;4.80;99.90;;;;;;5051917;28;20413;-74
2022/01/06 10:46:01;;;;;;;;;;;4.80;99.90;;;;;;5051469;28;20000;-72
2022/01/06 10:48:26;;;;;;;;;;;4.80;99.90;;;;;;5069748;28;19923;-72
2022/01/06 10:50:56;;;;;;;;;;;4.90;99.90;;;;;;5051160;28;20351;-73
2022/01/06 10:53:21;;;;;;;;;;;5.10;99.90;;;;;;5051910;28;19934;-72
2022/01/06 10:55:47;;;;;;;;;;;5.10;99.90;;;;;;5069072;28;19904;-73
2022/01/06 10:58:16;;;;;;;;;;;5.30;99.90;;;;;;5070041;28;19952;-72
2022/01/06 11:00:43;;;;;;;;;;;5.60;99.90;;;;;;5069070;28;19908;-72
2022/01/06 11:03:11;;;;;;;;;;;5.70;99.90;;;;;;5070141;28;19913;-73
2022/01/06 11:05:38;;;;;;;;;;;5.50;99.90;;;;;;5051209;28;20329;-74
2022/01/06 11:08:05;;;;;;;;;;;5.30;99.90;;;;;;5069789;28;19934;-74
2022/01/06 11:10:31;;;;;;;;;;;5.10;99.90;;;;;;5068905;28;19904;-72
2022/01/06 11:12:57;;;;;;;;;;;5.00;99.90;;;;;;5069569;28;19990;-73
2022/01/06 11:15:23;;;;;;;;;;;5.00;99.90;;;;;;5051025;28;20344;-73
2022/01/06 11:17:48;;;;;;;;;;;4.90;99.90;;;;;;5069129;28;19912;-73
2022/01/06 11:20:24;;;;;;;;;;;4.90;99.90;;;;;;5051300;28;19912;-74
2022/01/06 11:22:52;;;;;;;;;;;4.90;99.90;;;;;;5051462;28;20012;-74
2022/01/06 11:25:27;;;;;;;;;;;4.80;99.90;;;;;;5051672;28;19904;-73
2022/01/06 11:27:59;;;;;;;;;;;4.80;99.90;;;;;;5073362;28;19912;-72
2022/01/06 11:30:37;;;;;;;;;;;4.80;99.90;;;;;;5072630;28;20384;-72
2022/01/06 11:33:02;;;;;;;;;;;4.90;99.90;;;;;;5055088;28;19913;-74
2022/01/06 11:35:28;;;;;;;;;;;4.90;99.90;;;;;;5054322;28;19915;-73
2022/01/06 11:37:56;;;;;;;;;;;4.80;99.90;;;;;;5072563;28;19958;-73
2022/01/06 11:40:32;;;;;;;;;;;4.80;99.90;;;;;;5072772;28;20257;-73
2022/01/06 11:42:58;;;;;;;;;;;4.70;99.90;;;;;;5052871;28;20284;-73
2022/01/06 11:45:24;;;;;;;;;;;4.70;99.90;;;;;;5052185;28;19905;-74
2022/01/06 11:48:00;;;;;;;;;;;4.70;99.90;;;;;;5073017;28;19916;-74
2022/01/06 11:50:25;;;;;;;;;;;4.70;99.90;;;;;;5054823;28;20006;-74
2022/01/06 11:52:52;;;;;;;;;;;4.80;99.90;;;;;;5054637;28;19913;-73
2022/01/06 11:55:19;;;;;;;;;;;4.70;99.90;;;;;;5072145;28;20383;-73
2022/01/06 11:57:44;;;;;;;;;;;4.60;99.90;;;;;;5072154;28;20383;-73
2022/01/06 12:00:13;;;;;;;;;;;4.60;99.90;;;;;;5072419;28;19916;-73
2022/01/06 12:02:39;;;;;;;;;;;4.50;99.90;;;;;;5072292;28;20430;-72
2022/01/06 12:05:04;;;;;;;;;;;4.40;99.90;;;;;;5054701;28;19995;-72
2022/01/06 12:07:30;;;;;;;;;;;4.40;99.90;;;;;;5072197;28;20268;-73
2022/01/06 12:10:02;;;;;;;;;;;4.40;99.90;;;;;;5072427;28;19911;-73
2022/01/06 12:12:38;;;;;;;;;;;4.40;99.90;;;;;;5036703;28;19917;-73
2022/01/06 12:15:07;;;;;;;;;;;4.40;99.90;;;;;;5033688;28;19950;-73
2022/01/06 12:17:33;;;;;;;;;;;4.30;99.90;;;;;;5069685;28;19917;-72
2022/01/06 12:19:59;;;;;;;;;;;4.40;99.90;;;;;;5072061;28;19931;-73
2022/01/06 12:22:26;;;;;;;;;;;4.40;99.90;;;;;;5071644;28;19936;-72
2022/01/06 12:25:05;;;;;;;;;;;4.40;99.90;;;;;;5072069;28;19956;-73
2022/01/06 12:27:31;;;;;;;;;;;4.40;99.90;;;;;;5071437;28;20260;-73
2022/01/06 12:29:56;;;;;;;;;;;4.20;99.90;;;;;;5071919;28;19993;-73
2022/01/06 12:32:22;;;;;;;;;;;4.20;99.90;;;;;;5070985;28;19912;-73
2022/01/06 12:34:55;;;;;;;;;;;4.20;99.90;;;;;;5053512;28;20026;-73
2022/01/06 12:37:24;;;;;;;;;;;4.20;99.90;;;;;;5035736;28;19966;-73
2022/01/06 12:39:49;;;;;;;;;;;4.10;99.90;;;;;;5051479;28;19962;-72
2022/01/06 12:42:15;;;;;;;;;;;4.10;99.90;;;;;;5054723;28;19924;-72
2022/01/06 12:44:41;;;;;;;;;;;4.10;99.90;;;;;;5033601;28;19905;-71
2022/01/06 12:47:07;;;;;;;;;;;4.00;99.90;;;;;;5047151;28;19920;-73
2022/01/06 12:49:33;;;;;;;;;;;4.00;99.90;;;;;;5071628;28;19948;-72
2022/01/06 12:51:59;;;;;;;;;;;4.00;99.90;;;;;;5071144;28;19951;-73
2022/01/06 12:54:24;;;;;;;;;;;3.90;99.90;;;;;;5071056;28;20338;-73
2022/01/06 12:56:53;;;;;;;;;;;3.90;99.90;;;;;;5070743;28;19904;-74
2022/01/06 12:59:24;;;;;;;;;;;3.90;99.90;;;;;;5071153;28;19908;-73
2022/01/06 13:01:54;;;;;;;;;;;4.00;99.90;;;;;;5070794;28;19995;-73
2022/01/06 13:04:26;;;;;;;;;;;4.00;99.90;;;;;;5070880;28;20133;-73
2022/01/06 13:06:53;;;;;;;;;;;4.00;99.90;;;;;;5070240;28;19904;-73
2022/01/06 13:09:20;;;;;;;;;;;4.00;99.90;;;;;;5052849;28;19991;-73
2022/01/06 13:11:53;;;;;;;;;;;4.00;99.90;;;;;;5070689;28;20026;-73
2022/01/06 13:14:27;;;;;;;;;;;3.90;99.90;;;;;;5070787;28;19919;-73
2022/01/06 13:17:04;;;;;;;;;;;3.90;99.90;;;;;;5070088;28;19908;-76
2022/01/06 13:19:30;;;;;;;;;;;3.90;99.90;;;;;;5052724;28;19912;-73
2022/01/06 13:21:59;;;;;;;;;;;4.00;99.90;;;;;;5052493;28;19904;-73
2022/01/06 13:24:28;;;;;;;;;;;4.00;99.90;;;;;;5071086;28;20301;-73
2022/01/06 13:26:55;;;;;;;;;;;4.00;99.90;;;;;;5070380;28;20375;-73
2022/01/06 13:29:27;;;;;;;;;;;4.00;99.90;;;;;;5070528;28;19953;-73
2022/01/06 13:31:59;;;;;;;;;;;4.00;99.90;;;;;;5069885;28;19908;-73
2022/01/06 13:34:25;;;;;;;;;;;4.00;99.90;;;;;;5071014;28;19911;-73
2022/01/06 13:37:00;;;;;;;;;;;4.10;99.90;;;;;;5051898;28;19909;-72
2022/01/06 13:39:32;;;;;;;;;;;4.10;99.90;;;;;;5070450;28;19970;-72
2022/01/06 13:41:58;;;;;;;;;;;4.00;99.90;;;;;;5038887;28;19928;-72
2022/01/06 13:44:24;;;;;;;;;;;4.00;99.90;;;;;;5032671;28;19915;-73
2022/01/06 13:47:06;;;;;;;;;;;4.00;99.90;;;;;;5043862;28;19908;-73
2022/01/06 13:52:24;;;;;;;;;;;4.00;99.90;;;;;;5070273;28;19916;-73
2022/01/06 13:54:51;;;;;;;;;;;4.00;99.90;;;;;;5070320;28;19909;-73
2022/01/06 13:57:16;;;;;;;;;;;4.00;99.90;;;;;;5051456;28;20260;-74
2022/01/06 13:59:43;;;;;;;;;;;3.90;99.90;;;;;;5051947;28;19912;-73
2022/01/06 14:02:09;;;;;;;;;;;3.90;99.90;;;;;;5069723;28;19904;-73
2022/01/06 14:04:36;;;;;;;;;;;3.90;99.90;;;;;;5035578;28;20340;-73
2022/01/06 14:07:02;;;;;;;;;;;3.90;99.90;;;;;;5051417;28;19908;-73
2022/01/06 14:09:27;;;;;;;;;;;3.90;99.90;;;;;;5069870;28;19917;-74
2022/01/06 14:11:53;;;;;;;;;;;3.90;99.90;;;;;;5051513;28;19904;-74
2022/01/06 14:14:19;;;;;;;;;;;3.90;99.90;;;;;;5070091;28;19914;-72
2022/01/06 14:16:45;;;;;;;;;;;3.80;99.90;;;;;;5069772;28;19939;-73
2022/01/06 14:19:10;;;;;;;;;;;3.90;99.90;;;;;;5051635;28;19917;-73
2022/01/06 14:21:36;;;;;;;;;;;3.90;99.90;;;;;;5041737;28;19913;-72
2022/01/06 14:24:02;;;;;;;;;;;3.80;99.90;;;;;;5032102;28;19930;-73
2022/01/06 14:26:27;;;;;;;;;;;3.80;99.90;;;;;;5058872;28;19958;-73
2022/01/06 14:28:53;;;;;;;;;;;3.80;99.90;;;;;;5069832;28;19920;-73
2022/01/06 14:31:19;;;;;;;;;;;3.80;99.90;;;;;;5069619;28;19915;-72
2022/01/06 14:33:45;;;;;;;;;;;3.80;99.90;;;;;;5069773;28;20035;-73
2022/01/06 14:36:12;;;;;;;;;;;3.80;99.90;;;;;;5069570;28;20324;-73
2022/01/06 14:38:39;;;;;;;;;;;3.80;99.90;;;;;;5069410;28;20253;-72
2022/01/06 14:41:05;;;;;;;;;;;3.80;99.90;;;;;;5063306;28;20434;-72